sensor_id;sensor_type;location;lat;lon;timestamp;temperature;humidity
18882;DHT22;9573;50.948;11.600;2023-07-30T00:02:07;17.70;99.90
18882;DHT22;9573;50.948;11.600;2023-07-30T00:04:34;17.70;99.90
18882;DHT22;9573;50.948;11.600;2023-07-30T00:07:01;17.70;99.90
18882;DHT22;9573;50.948;11.600;2023-07-30T00:09:29;17.70;99.90
18882;DHT22;9573;50.948;11.600;2023-07-30T00:11:56;17.60;99.90
18882;DHT22;9573;50.948;11.600;2023-07-30T00:14:23;17.70;99.90
18882;DHT22;9573;50.948;11.600;2023-07-30T00:16:50;17.70;99.90
18882;DHT22;9573;50.948;11.600;2023-07-30T00:19:19;17.70;99.90
18882;DHT22;9573;50.948;11.600;2023-07-30T00:21:46;17.70;99.90
18882;DHT22;9573;50.948;11.600;2023-07-30T00:24:13;17.70;99.90
18882;DHT22;9573;50.948;11.600;2023-07-30T00:26:40;17.70;99.90
18882;DHT22;9573;50.948;11.600;2023-07-30T00:29:07;17.80;99.90
18882;DHT22;9573;50.948;11.600;2023-07-30T00:31:34;17.80;99.90
18882;DHT22;9573;50.948;11.600;2023-07-30T00:34:01;17.80;99.90
18882;DHT22;9573;50.948;11.600;2023-07-30T00:36:30;17.80;99.90
18882;DHT22;9573;50.948;11.600;2023-07-30T00:38:57;17.80;99.90
18882;DHT22;9573;50.948;11.600;2023-07-30T00:41:24;17.80;99.90
18882;DHT22;9573;50.948;11.600;2023-07-30T00:43:51;17.80;99.90
18882;DHT22;9573;50.948;11.600;2023-07-30T00:46:18;17.80;99.90
18882;DHT22;9573;50.948;11.600;2023-07-30T00:48:45;17.80;99.90
18882;DHT22;9573;50.948;11.600;2023-07-30T00:51:13;17.80;99.90
18882;DHT22;9573;50.948;11.600;2023-07-30T00:53:43;17.80;99.90
18882;DHT22;9573;50.948;11.600;2023-07-30T00:56:11;17.80;99.90
18882;DHT22;9573;50.948;11.600;2023-07-30T00:58:39;17.70;99.90
18882;DHT22;9573;50.948;11.600;2023-07-30T01:01:07;17.70;99.90
18882;DHT22;9573;50.948;11.600;2023-07-30T01:03:35;17.70;99.90
18882;DHT22;9573;50.948;11.600;2023-07-30T01:06:02;17.70;99.90
18882;DHT22;9573;50.948;11.600;2023-07-30T01:08:29;17.60;99.90
18882;DHT22;9573;50.948;11.600;2023-07-30T01:10:58;17.60;99.90
18882;DHT22;9573;50.948;11.600;2023-07-30T01:13:26;17.30;99.90
18882;DHT22;9573;50.948;11.600;2023-07-30T01:15:54;17.40;99.90
18882;DHT22;9573;50.948;11.600;2023-07-30T01:18:21;17.40;99.90
18882;DHT22;9573;50.948;11.600;2023-07-30T01:20:53;17.40;99.90
18882;DHT22;9573;50.948;11.600;2023-07-30T01:23:20;17.30;99.90
18882;DHT22;9573;50.948;11.600;2023-07-30T01:25:49;17.20;99.90
18882;DHT22;9573;50.948;11.600;2023-07-30T01:28:23;17.20;99.90
18882;DHT22;9573;50.948;11.600;2023-07-30T01:30:51;17.10;99.90
18882;DHT22;9573;50.948;11.600;2023-07-30T01:33:20;17.10;99.90
18882;DHT22;9573;50.948;11.600;2023-07-30T01:35:48;17.10;99.90
18882;DHT22;9573;50.948;11.600;2023-07-30T01:38:18;17.10;99.90
18882;DHT22;9573;50.948;11.600;2023-07-30T01:40:45;17.10;99.90
18882;DHT22;9573;50.948;11.600;2023-07-30T01:43:12;17.10;99.90
18882;DHT22;9573;50.948;11.600;2023-07-30T01:45:39;17.00;99.90
18882;DHT22;9573;50.948;11.600;2023-07-30T01:48:07;17.00;99.90
18882;DHT22;9573;50.948;11.600;2023-07-30T01:50:34;17.00;99.90
18882;DHT22;9573;50.948;11.600;2023-07-30T01:53:01;17.00;99.90
18882;DHT22;9573;50.948;11.600;2023-07-30T01:55:30;17.00;99.90
18882;DHT22;9573;50.948;11.600;2023-07-30T01:57:57;17.10;99.90
18882;DHT22;9573;50.948;11.600;2023-07-30T02:00:24;17.10;99.90
18882;DHT22;9573;50.948;11.600;2023-07-30T02:02:51;17.20;99.90
18882;DHT22;9573;50.948;11.600;2023-07-30T02:05:18;17.20;99.90
18882;DHT22;9573;50.948;11.600;2023-07-30T02:07:45;17.20;99.90
18882;DHT22;9573;50.948;11.600;2023-07-30T02:10:13;17.20;99.90
18882;DHT22;9573;50.948;11.600;2023-07-30T02:12:41;17.30;99.90
18882;DHT22;9573;50.948;11.600;2023-07-30T02:15:08;17.30;99.90
18882;DHT22;9573;50.948;11.600;2023-07-30T02:17:36;17.30;99.90
18882;DHT22;9573;50.948;11.600;2023-07-30T02:20:03;17.30;99.90
18882;DHT22;9573;50.948;11.600;2023-07-30T02:22:32;17.30;99.90
18882;DHT22;9573;50.948;11.600;2023-07-30T02:24:59;17.30;99.90
18882;DHT22;9573;50.948;11.600;2023-07-30T02:27:26;17.30;99.90
18882;DHT22;9573;50.948;11.600;2023-07-30T02:29:54;17.20;99.90
18882;DHT22;9573;50.948;11.600;2023-07-30T02:32:21;17.20;99.90
18882;DHT22;9573;50.948;11.600;2023-07-30T02:34:48;17.20;99.90
18882;DHT22;9573;50.948;11.600;2023-07-30T02:37:15;17.20;99.90
18882;DHT22;9573;50.948;11.600;2023-07-30T02:39:42;17.30;99.90
18882;DHT22;9573;50.948;11.600;2023-07-30T02:42:09;17.30;99.90
18882;DHT22;9573;50.948;11.600;2023-07-30T02:44:37;17.30;99.90
18882;DHT22;9573;50.948;11.600;2023-07-30T02:47:05;17.30;99.90
18882;DHT22;9573;50.948;11.600;2023-07-30T02:49:33;17.30;99.90
18882;DHT22;9573;50.948;11.600;2023-07-30T02:52:00;17.30;99.90
18882;DHT22;9573;50.948;11.600;2023-07-30T02:54:27;17.30;99.90
18882;DHT22;9573;50.948;11.600;2023-07-30T02:56:54;17.20;99.90
18882;DHT22;9573;50.948;11.600;2023-07-30T02:59:21;17.20;99.90
18882;DHT22;9573;50.948;11.600;2023-07-30T03:01:48;17.20;99.90
18882;DHT22;9573;50.948;11.600;2023-07-30T03:04:16;17.20;99.90
18882;DHT22;9573;50.948;11.600;2023-07-30T03:06:43;17.10;99.90
18882;DHT22;9573;50.948;11.600;2023-07-30T03:09:10;17.10;99.90
18882;DHT22;9573;50.948;11.600;2023-07-30T03:11:37;17.10;99.90
18882;DHT22;9573;50.948;11.600;2023-07-30T03:14:05;17.00;99.90
18882;DHT22;9573;50.948;11.600;2023-07-30T03:16:32;17.00;99.90
18882;DHT22;9573;50.948;11.600;2023-07-30T03:18:59;16.90;99.90
18882;DHT22;9573;50.948;11.600;2023-07-30T03:21:27;16.90;99.90
18882;DHT22;9573;50.948;11.600;2023-07-30T03:23:54;16.80;99.90
18882;DHT22;9573;50.948;11.600;2023-07-30T03:26:21;16.90;99.90
18882;DHT22;9573;50.948;11.600;2023-07-30T03:28:48;16.90;99.90
18882;DHT22;9573;50.948;11.600;2023-07-30T03:31:16;16.90;99.90
18882;DHT22;9573;50.948;11.600;2023-07-30T03:33:43;16.90;99.90
18882;DHT22;9573;50.948;11.600;2023-07-30T03:36:12;17.00;99.90
18882;DHT22;9573;50.948;11.600;2023-07-30T03:38:42;16.90;99.90
18882;DHT22;9573;50.948;11.600;2023-07-30T03:41:10;16.90;99.90
18882;DHT22;9573;50.948;11.600;2023-07-30T03:43:37;16.80;99.90
18882;DHT22;9573;50.948;11.600;2023-07-30T03:46:04;16.80;99.90
18882;DHT22;9573;50.948;11.600;2023-07-30T03:48:32;16.80;99.90
18882;DHT22;9573;50.948;11.600;2023-07-30T03:50:59;16.80;99.90
18882;DHT22;9573;50.948;11.600;2023-07-30T03:53:27;16.70;99.90
18882;DHT22;9573;50.948;11.600;2023-07-30T03:55:55;16.80;99.90
18882;DHT22;9573;50.948;11.600;2023-07-30T03:58:22;16.70;99.90
18882;DHT22;9573;50.948;11.600;2023-07-30T04:00:49;16.70;99.90
18882;DHT22;9573;50.948;11.600;2023-07-30T04:03:16;16.70;99.90
18882;DHT22;9573;50.948;11.600;2023-07-30T04:05:43;16.70;99.90
18882;DHT22;9573;50.948;11.600;2023-07-30T04:08:10;16.70;99.90
18882;DHT22;9573;50.948;11.600;2023-07-30T04:10:37;16.70;99.90
18882;DHT22;9573;50.948;11.600;2023-07-30T04:13:06;16.70;99.90
18882;DHT22;9573;50.948;11.600;2023-07-30T04:15:33;16.80;99.90
18882;DHT22;9573;50.948;11.600;2023-07-30T04:18:00;16.80;99.90
18882;DHT22;9573;50.948;11.600;2023-07-30T04:20:27;16.90;99.90
18882;DHT22;9573;50.948;11.600;2023-07-30T04:22:55;16.90;99.90
18882;DHT22;9573;50.948;11.600;2023-07-30T04:25:22;17.00;99.90
18882;DHT22;9573;50.948;11.600;2023-07-30T04:27:49;17.10;99.90
18882;DHT22;9573;50.948;11.600;2023-07-30T04:30:18;17.10;99.90
18882;DHT22;9573;50.948;11.600;2023-07-30T04:32:45;17.20;99.90
18882;DHT22;9573;50.948;11.600;2023-07-30T04:35:12;17.30;99.90
18882;DHT22;9573;50.948;11.600;2023-07-30T04:37:39;17.40;99.90
18882;DHT22;9573;50.948;11.600;2023-07-30T04:40:07;17.50;99.90
18882;DHT22;9573;50.948;11.600;2023-07-30T04:42:35;17.60;99.90
18882;DHT22;9573;50.948;11.600;2023-07-30T04:45:03;17.80;99.90
18882;DHT22;9573;50.948;11.600;2023-07-30T04:47:32;17.90;99.90
18882;DHT22;9573;50.948;11.600;2023-07-30T04:49:59;18.10;99.90
18882;DHT22;9573;50.948;11.600;2023-07-30T04:52:26;18.10;99.90
18882;DHT22;9573;50.948;11.600;2023-07-30T04:54:53;18.30;99.90
18882;DHT22;9573;50.948;11.600;2023-07-30T04:57:20;18.70;99.90
18882;DHT22;9573;50.948;11.600;2023-07-30T04:59:47;19.00;99.90
18882;DHT22;9573;50.948;11.600;2023-07-30T05:02:14;19.00;99.90
18882;DHT22;9573;50.948;11.600;2023-07-30T05:04:43;19.00;99.90
18882;DHT22;9573;50.948;11.600;2023-07-30T05:07:10;19.60;99.90
18882;DHT22;9573;50.948;11.600;2023-07-30T05:09:37;21.50;99.90
18882;DHT22;9573;50.948;11.600;2023-07-30T05:12:04;23.20;99.90
18882;DHT22;9573;50.948;11.600;2023-07-30T05:14:32;23.20;99.90
18882;DHT22;9573;50.948;11.600;2023-07-30T05:16:59;23.00;99.90
18882;DHT22;9573;50.948;11.600;2023-07-30T05:19:26;22.60;99.90
18882;DHT22;9573;50.948;11.600;2023-07-30T05:21:54;23.10;99.90
18882;DHT22;9573;50.948;11.600;2023-07-30T05:24:22;22.70;99.90
18882;DHT22;9573;50.948;11.600;2023-07-30T05:26:49;22.10;99.90
18882;DHT22;9573;50.948;11.600;2023-07-30T05:29:16;21.50;99.90
18882;DHT22;9573;50.948;11.600;2023-07-30T05:31:43;21.10;99.90
18882;DHT22;9573;50.948;11.600;2023-07-30T05:34:10;20.50;99.90
18882;DHT22;9573;50.948;11.600;2023-07-30T05:36:37;20.10;99.90
18882;DHT22;9573;50.948;11.600;2023-07-30T05:39:05;20.10;99.90
18882;DHT22;9573;50.948;11.600;2023-07-30T05:41:32;23.30;99.90
18882;DHT22;9573;50.948;11.600;2023-07-30T05:43:59;27.20;99.90
18882;DHT22;9573;50.948;11.600;2023-07-30T05:46:26;28.60;99.90
18882;DHT22;9573;50.948;11.600;2023-07-30T05:48:54;28.20;99.90
18882;DHT22;9573;50.948;11.600;2023-07-30T05:51:21;29.40;99.90
18882;DHT22;9573;50.948;11.600;2023-07-30T05:53:48;31.70;99.90
18882;DHT22;9573;50.948;11.600;2023-07-30T05:56:17;33.30;99.90
18882;DHT22;9573;50.948;11.600;2023-07-30T05:58:45;32.80;99.90
18882;DHT22;9573;50.948;11.600;2023-07-30T06:01:12;33.10;99.90
18882;DHT22;9573;50.948;11.600;2023-07-30T06:03:39;34.90;97.00
18882;DHT22;9573;50.948;11.600;2023-07-30T06:06:06;36.00;93.10
18882;DHT22;9573;50.948;11.600;2023-07-30T06:08:34;35.30;92.30
18882;DHT22;9573;50.948;11.600;2023-07-30T06:11:01;33.30;94.40
18882;DHT22;9573;50.948;11.600;2023-07-30T06:13:30;34.10;94.90
18882;DHT22;9573;50.948;11.600;2023-07-30T06:15:57;36.60;90.90
18882;DHT22;9573;50.948;11.600;2023-07-30T06:18:24;38.60;83.90
18882;DHT22;9573;50.948;11.600;2023-07-30T06:20:51;37.50;82.10
18882;DHT22;9573;50.948;11.600;2023-07-30T06:23:18;36.00;84.80
18882;DHT22;9573;50.948;11.600;2023-07-30T06:25:46;34.60;88.30
18882;DHT22;9573;50.948;11.600;2023-07-30T06:28:13;33.10;90.50
18882;DHT22;9573;50.948;11.600;2023-07-30T06:30:41;31.70;92.10
18882;DHT22;9573;50.948;11.600;2023-07-30T06:33:08;30.50;93.80
18882;DHT22;9573;50.948;11.600;2023-07-30T06:35:36;29.70;95.50
18882;DHT22;9573;50.948;11.600;2023-07-30T06:38:03;29.50;96.00
18882;DHT22;9573;50.948;11.600;2023-07-30T06:40:30;32.40;93.80
18882;DHT22;9573;50.948;11.600;2023-07-30T06:42:57;34.30;90.60
18882;DHT22;9573;50.948;11.600;2023-07-30T06:45:24;36.60;85.30
18882;DHT22;9573;50.948;11.600;2023-07-30T06:47:52;36.90;80.80
18882;DHT22;9573;50.948;11.600;2023-07-30T06:50:19;35.50;81.60
18882;DHT22;9573;50.948;11.600;2023-07-30T06:52:46;33.90;85.50
18882;DHT22;9573;50.948;11.600;2023-07-30T06:55:13;32.70;88.90
18882;DHT22;9573;50.948;11.600;2023-07-30T06:57:41;32.00;90.50
18882;DHT22;9573;50.948;11.600;2023-07-30T07:00:08;31.50;89.70
18882;DHT22;9573;50.948;11.600;2023-07-30T07:02:37;32.00;89.30
18882;DHT22;9573;50.948;11.600;2023-07-30T07:05:06;33.00;87.30
18882;DHT22;9573;50.948;11.600;2023-07-30T07:07:33;34.70;80.50
18882;DHT22;9573;50.948;11.600;2023-07-30T07:10:00;37.10;76.00
18882;DHT22;9573;50.948;11.600;2023-07-30T07:12:27;39.00;70.90
18882;DHT22;9573;50.948;11.600;2023-07-30T07:14:54;40.70;66.70
18882;DHT22;9573;50.948;11.600;2023-07-30T07:17:24;41.30;63.00
18882;DHT22;9573;50.948;11.600;2023-07-30T07:19:51;39.00;64.50
18882;DHT22;9573;50.948;11.600;2023-07-30T07:22:20;37.10;67.90
18882;DHT22;9573;50.948;11.600;2023-07-30T07:24:47;34.90;73.30
18882;DHT22;9573;50.948;11.600;2023-07-30T07:27:17;35.00;74.90
18882;DHT22;9573;50.948;11.600;2023-07-30T07:29:45;35.40;72.00
18882;DHT22;9573;50.948;11.600;2023-07-30T07:32:12;34.50;73.30
18882;DHT22;9573;50.948;11.600;2023-07-30T07:34:39;34.40;70.80
18882;DHT22;9573;50.948;11.600;2023-07-30T07:37:06;36.10;67.80
18882;DHT22;9573;50.948;11.600;2023-07-30T07:39:34;36.20;65.70
18882;DHT22;9573;50.948;11.600;2023-07-30T07:42:02;34.30;68.40
18882;DHT22;9573;50.948;11.600;2023-07-30T07:44:29;35.10;66.90
18882;DHT22;9573;50.948;11.600;2023-07-30T07:46:56;35.90;64.60
18882;DHT22;9573;50.948;11.600;2023-07-30T07:49:26;34.50;67.00
18882;DHT22;9573;50.948;11.600;2023-07-30T07:51:53;33.60;69.40
18882;DHT22;9573;50.948;11.600;2023-07-30T07:54:20;33.80;69.10
18882;DHT22;9573;50.948;11.600;2023-07-30T07:56:49;35.40;65.50
18882;DHT22;9573;50.948;11.600;2023-07-30T07:59:16;37.70;60.90
18882;DHT22;9573;50.948;11.600;2023-07-30T08:01:43;38.70;59.10
18882;DHT22;9573;50.948;11.600;2023-07-30T08:04:10;40.90;57.70
18882;DHT22;9573;50.948;11.600;2023-07-30T08:06:37;42.40;54.50
18882;DHT22;9573;50.948;11.600;2023-07-30T08:09:04;42.90;52.80
18882;DHT22;9573;50.948;11.600;2023-07-30T08:11:31;41.80;51.80
18882;DHT22;9573;50.948;11.600;2023-07-30T08:14:00;41.20;53.00
18882;DHT22;9573;50.948;11.600;2023-07-30T08:16:27;41.80;52.60
18882;DHT22;9573;50.948;11.600;2023-07-30T08:18:54;43.20;50.50
18882;DHT22;9573;50.948;11.600;2023-07-30T08:21:21;43.10;49.30
18882;DHT22;9573;50.948;11.600;2023-07-30T08:23:48;43.10;49.40
18882;DHT22;9573;50.948;11.600;2023-07-30T08:26:15;43.20;48.70
18882;DHT22;9573;50.948;11.600;2023-07-30T08:28:42;43.10;48.80
18882;DHT22;9573;50.948;11.600;2023-07-30T08:31:11;43.20;49.00
18882;DHT22;9573;50.948;11.600;2023-07-30T08:33:38;43.40;48.30
18882;DHT22;9573;50.948;11.600;2023-07-30T08:36:05;43.30;47.90
18882;DHT22;9573;50.948;11.600;2023-07-30T08:38:32;43.00;47.80
18882;DHT22;9573;50.948;11.600;2023-07-30T08:40:59;42.60;47.70
18882;DHT22;9573;50.948;11.600;2023-07-30T08:43:26;42.20;47.90
18882;DHT22;9573;50.948;11.600;2023-07-30T08:45:53;41.50;49.30
18882;DHT22;9573;50.948;11.600;2023-07-30T08:48:22;40.80;50.30
18882;DHT22;9573;50.948;11.600;2023-07-30T08:50:50;38.80;52.40
18882;DHT22;9573;50.948;11.600;2023-07-30T08:53:17;38.00;54.20
18882;DHT22;9573;50.948;11.600;2023-07-30T08:55:46;38.10;53.00
18882;DHT22;9573;50.948;11.600;2023-07-30T08:58:13;36.40;55.10
18882;DHT22;9573;50.948;11.600;2023-07-30T09:00:42;35.40;57.50
18882;DHT22;9573;50.948;11.600;2023-07-30T09:03:13;36.10;56.00
18882;DHT22;9573;50.948;11.600;2023-07-30T09:05:43;36.60;55.50
18882;DHT22;9573;50.948;11.600;2023-07-30T09:08:10;38.40;54.40
18882;DHT22;9573;50.948;11.600;2023-07-30T09:10:38;39.90;52.70
18882;DHT22;9573;50.948;11.600;2023-07-30T09:13:05;40.20;51.20
18882;DHT22;9573;50.948;11.600;2023-07-30T09:15:34;39.50;52.00
18882;DHT22;9573;50.948;11.600;2023-07-30T09:18:07;38.00;52.50
18882;DHT22;9573;50.948;11.600;2023-07-30T09:20:37;37.80;52.90
18882;DHT22;9573;50.948;11.600;2023-07-30T09:23:06;38.10;52.00
18882;DHT22;9573;50.948;11.600;2023-07-30T09:25:34;37.60;52.50
18882;DHT22;9573;50.948;11.600;2023-07-30T09:28:02;36.60;53.70
18882;DHT22;9573;50.948;11.600;2023-07-30T09:30:29;36.50;53.90
18882;DHT22;9573;50.948;11.600;2023-07-30T09:32:59;35.50;55.40
18882;DHT22;9573;50.948;11.600;2023-07-30T09:35:26;35.30;55.20
18882;DHT22;9573;50.948;11.600;2023-07-30T09:37:58;36.30;53.80
18882;DHT22;9573;50.948;11.600;2023-07-30T09:40:36;37.30;52.60
18882;DHT22;9573;50.948;11.600;2023-07-30T09:43:05;38.30;51.20
18882;DHT22;9573;50.948;11.600;2023-07-30T09:45:34;38.40;51.10
18882;DHT22;9573;50.948;11.600;2023-07-30T09:48:03;37.40;52.40
18882;DHT22;9573;50.948;11.600;2023-07-30T09:50:31;38.00;52.00
18882;DHT22;9573;50.948;11.600;2023-07-30T09:53:01;39.30;50.00
18882;DHT22;9573;50.948;11.600;2023-07-30T09:55:28;38.60;51.10
18882;DHT22;9573;50.948;11.600;2023-07-30T09:57:57;38.20;52.00
18882;DHT22;9573;50.948;11.600;2023-07-30T10:00:24;38.70;51.60
18882;DHT22;9573;50.948;11.600;2023-07-30T10:02:53;39.60;49.10
18882;DHT22;9573;50.948;11.600;2023-07-30T10:05:26;39.60;50.40
18882;DHT22;9573;50.948;11.600;2023-07-30T10:07:59;39.80;49.60
18882;DHT22;9573;50.948;11.600;2023-07-30T10:10:29;39.70;49.40
18882;DHT22;9573;50.948;11.600;2023-07-30T10:13:05;40.20;48.60
18882;DHT22;9573;50.948;11.600;2023-07-30T10:15:34;39.60;48.90
18882;DHT22;9573;50.948;11.600;2023-07-30T10:18:02;38.50;50.50
18882;DHT22;9573;50.948;11.600;2023-07-30T10:20:30;36.90;53.10
18882;DHT22;9573;50.948;11.600;2023-07-30T10:22:59;35.50;55.60
18882;DHT22;9573;50.948;11.600;2023-07-30T10:25:29;34.60;57.10
18882;DHT22;9573;50.948;11.600;2023-07-30T10:27:59;33.70;58.40
18882;DHT22;9573;50.948;11.600;2023-07-30T10:30:31;33.10;59.70
18882;DHT22;9573;50.948;11.600;2023-07-30T10:33:04;33.10;59.90
18882;DHT22;9573;50.948;11.600;2023-07-30T10:35:40;32.90;60.30
18882;DHT22;9573;50.948;11.600;2023-07-30T10:38:18;33.90;58.20
18882;DHT22;9573;50.948;11.600;2023-07-30T10:41:06;35.50;56.90
18882;DHT22;9573;50.948;11.600;2023-07-30T10:43:36;36.70;55.60
18882;DHT22;9573;50.948;11.600;2023-07-30T10:46:06;37.00;54.80
18882;DHT22;9573;50.948;11.600;2023-07-30T10:48:35;37.00;54.10
18882;DHT22;9573;50.948;11.600;2023-07-30T10:51:06;36.30;55.50
18882;DHT22;9573;50.948;11.600;2023-07-30T10:53:41;35.80;56.30
18882;DHT22;9573;50.948;11.600;2023-07-30T10:56:09;36.30;56.60
18882;DHT22;9573;50.948;11.600;2023-07-30T10:58:38;36.40;55.30
18882;DHT22;9573;50.948;11.600;2023-07-30T11:01:08;35.20;56.00
18882;DHT22;9573;50.948;11.600;2023-07-30T11:03:36;33.90;57.90
18882;DHT22;9573;50.948;11.600;2023-07-30T11:06:04;33.30;59.70
18882;DHT22;9573;50.948;11.600;2023-07-30T11:08:34;33.90;59.20
18882;DHT22;9573;50.948;11.600;2023-07-30T11:11:03;34.50;57.50
18882;DHT22;9573;50.948;11.600;2023-07-30T11:13:35;34.50;56.90
18882;DHT22;9573;50.948;11.600;2023-07-30T11:16:05;35.00;57.70
18882;DHT22;9573;50.948;11.600;2023-07-30T11:18:33;35.00;56.60
18882;DHT22;9573;50.948;11.600;2023-07-30T11:21:05;34.30;56.90
18882;DHT22;9573;50.948;11.600;2023-07-30T11:23:32;33.80;58.40
18882;DHT22;9573;50.948;11.600;2023-07-30T11:26:01;34.00;58.00
18882;DHT22;9573;50.948;11.600;2023-07-30T11:28:29;34.40;57.90
18882;DHT22;9573;50.948;11.600;2023-07-30T11:30:58;34.40;57.60
18882;DHT22;9573;50.948;11.600;2023-07-30T11:33:28;34.20;58.10
18882;DHT22;9573;50.948;11.600;2023-07-30T11:35:55;34.10;58.40
18882;DHT22;9573;50.948;11.600;2023-07-30T11:38:24;33.90;58.60
18882;DHT22;9573;50.948;11.600;2023-07-30T11:40:52;33.40;57.90
18882;DHT22;9573;50.948;11.600;2023-07-30T11:43:21;32.60;59.60
18882;DHT22;9573;50.948;11.600;2023-07-30T11:45:49;31.90;61.20
18882;DHT22;9573;50.948;11.600;2023-07-30T11:48:16;31.20;62.50
18882;DHT22;9573;50.948;11.600;2023-07-30T11:50:46;30.80;63.30
18882;DHT22;9573;50.948;11.600;2023-07-30T11:53:14;30.30;65.60
18882;DHT22;9573;50.948;11.600;2023-07-30T11:55:43;29.90;66.70
18882;DHT22;9573;50.948;11.600;2023-07-30T11:58:12;29.40;70.30
18882;DHT22;9573;50.948;11.600;2023-07-30T12:00:40;28.70;72.40
18882;DHT22;9573;50.948;11.600;2023-07-30T12:03:11;28.30;74.20
18882;DHT22;9573;50.948;11.600;2023-07-30T12:05:39;28.00;74.70
18882;DHT22;9573;50.948;11.600;2023-07-30T12:08:14;27.90;75.20
18882;DHT22;9573;50.948;11.600;2023-07-30T12:10:45;27.80;75.70
18882;DHT22;9573;50.948;11.600;2023-07-30T12:13:19;27.90;75.90
18882;DHT22;9573;50.948;11.600;2023-07-30T12:15:51;28.00;76.30
18882;DHT22;9573;50.948;11.600;2023-07-30T12:18:18;28.00;75.90
18882;DHT22;9573;50.948;11.600;2023-07-30T12:20:46;27.80;76.20
18882;DHT22;9573;50.948;11.600;2023-07-30T12:23:14;27.80;76.80
18882;DHT22;9573;50.948;11.600;2023-07-30T12:25:42;27.80;76.90
18882;DHT22;9573;50.948;11.600;2023-07-30T12:28:09;27.80;77.00
18882;DHT22;9573;50.948;11.600;2023-07-30T12:30:36;27.60;77.90
18882;DHT22;9573;50.948;11.600;2023-07-30T12:33:03;27.30;76.50
18882;DHT22;9573;50.948;11.600;2023-07-30T12:35:31;27.10;76.80
18882;DHT22;9573;50.948;11.600;2023-07-30T12:37:58;27.00;77.40
18882;DHT22;9573;50.948;11.600;2023-07-30T12:40:27;26.90;78.80
18882;DHT22;9573;50.948;11.600;2023-07-30T12:43:00;26.80;79.10
18882;DHT22;9573;50.948;11.600;2023-07-30T12:45:28;26.80;80.60
18882;DHT22;9573;50.948;11.600;2023-07-30T12:47:55;26.60;81.50
18882;DHT22;9573;50.948;11.600;2023-07-30T12:50:22;26.50;82.50
18882;DHT22;9573;50.948;11.600;2023-07-30T12:52:49;26.60;83.20
18882;DHT22;9573;50.948;11.600;2023-07-30T12:55:16;26.80;83.00
18882;DHT22;9573;50.948;11.600;2023-07-30T12:57:45;27.00;81.80
18882;DHT22;9573;50.948;11.600;2023-07-30T13:00:13;27.30;82.50
18882;DHT22;9573;50.948;11.600;2023-07-30T13:02:40;27.70;82.00
18882;DHT22;9573;50.948;11.600;2023-07-30T13:05:08;28.20;81.00
18882;DHT22;9573;50.948;11.600;2023-07-30T13:07:35;28.80;80.00
18882;DHT22;9573;50.948;11.600;2023-07-30T13:10:04;29.20;79.00
18882;DHT22;9573;50.948;11.600;2023-07-30T13:12:32;29.40;77.10
18882;DHT22;9573;50.948;11.600;2023-07-30T13:15:01;29.20;74.70
18882;DHT22;9573;50.948;11.600;2023-07-30T13:17:29;28.90;74.90
18882;DHT22;9573;50.948;11.600;2023-07-30T13:19:57;28.90;75.30
18882;DHT22;9573;50.948;11.600;2023-07-30T13:22:24;28.90;75.50
18882;DHT22;9573;50.948;11.600;2023-07-30T13:24:51;29.30;75.50
18882;DHT22;9573;50.948;11.600;2023-07-30T13:27:19;29.40;76.90
18882;DHT22;9573;50.948;11.600;2023-07-30T13:29:46;29.30;76.60
18882;DHT22;9573;50.948;11.600;2023-07-30T13:32:15;29.20;76.00
18882;DHT22;9573;50.948;11.600;2023-07-30T13:34:43;29.30;75.30
18882;DHT22;9573;50.948;11.600;2023-07-30T13:37:10;29.30;74.60
18882;DHT22;9573;50.948;11.600;2023-07-30T13:39:37;28.90;77.00
18882;DHT22;9573;50.948;11.600;2023-07-30T13:42:05;28.70;78.30
18882;DHT22;9573;50.948;11.600;2023-07-30T13:44:32;28.40;76.70
18882;DHT22;9573;50.948;11.600;2023-07-30T13:46:59;27.90;77.20
18882;DHT22;9573;50.948;11.600;2023-07-30T13:49:28;27.70;77.80
18882;DHT22;9573;50.948;11.600;2023-07-30T13:51:55;27.30;78.90
18882;DHT22;9573;50.948;11.600;2023-07-30T13:54:22;26.90;79.70
18882;DHT22;9573;50.948;11.600;2023-07-30T13:56:49;26.40;81.20
18882;DHT22;9573;50.948;11.600;2023-07-30T13:59:16;25.90;89.20
18882;DHT22;9573;50.948;11.600;2023-07-30T14:01:43;24.50;93.20
18882;DHT22;9573;50.948;11.600;2023-07-30T14:04:10;23.30;96.80
18882;DHT22;9573;50.948;11.600;2023-07-30T14:06:39;21.80;99.90
18882;DHT22;9573;50.948;11.600;2023-07-30T14:09:06;20.40;99.90
18882;DHT22;9573;50.948;11.600;2023-07-30T14:11:33;19.60;99.90
18882;DHT22;9573;50.948;11.600;2023-07-30T14:14:00;18.90;99.90
18882;DHT22;9573;50.948;11.600;2023-07-30T14:16:27;18.30;99.90
18882;DHT22;9573;50.948;11.600;2023-07-30T14:18:54;18.00;99.90
18882;DHT22;9573;50.948;11.600;2023-07-30T14:21:21;17.80;99.90
18882;DHT22;9573;50.948;11.600;2023-07-30T14:23:50;17.80;99.90
18882;DHT22;9573;50.948;11.600;2023-07-30T14:26:17;17.70;99.90
18882;DHT22;9573;50.948;11.600;2023-07-30T14:28:45;17.70;99.90
18882;DHT22;9573;50.948;11.600;2023-07-30T14:31:12;17.70;99.90
18882;DHT22;9573;50.948;11.600;2023-07-30T14:33:40;17.70;99.90
18882;DHT22;9573;50.948;11.600;2023-07-30T14:36:07;17.60;99.90
18882;DHT22;9573;50.948;11.600;2023-07-30T14:38:36;17.80;99.90
18882;DHT22;9573;50.948;11.600;2023-07-30T14:41:05;18.00;99.90
18882;DHT22;9573;50.948;11.600;2023-07-30T14:43:34;18.10;99.90
18882;DHT22;9573;50.948;11.600;2023-07-30T14:46:01;18.40;99.90
18882;DHT22;9573;50.948;11.600;2023-07-30T14:48:28;18.50;99.90
18882;DHT22;9573;50.948;11.600;2023-07-30T14:50:55;18.80;99.90
18882;DHT22;9573;50.948;11.600;2023-07-30T14:53:22;19.00;99.90
18882;DHT22;9573;50.948;11.600;2023-07-30T14:55:49;19.40;99.90
18882;DHT22;9573;50.948;11.600;2023-07-30T14:58:18;19.70;99.90
18882;DHT22;9573;50.948;11.600;2023-07-30T15:00:45;20.10;99.90
18882;DHT22;9573;50.948;11.600;2023-07-30T15:03:12;20.50;99.90
18882;DHT22;9573;50.948;11.600;2023-07-30T15:05:39;21.00;99.90
18882;DHT22;9573;50.948;11.600;2023-07-30T15:08:06;21.30;99.90
18882;DHT22;9573;50.948;11.600;2023-07-30T15:10:34;21.20;99.90
18882;DHT22;9573;50.948;11.600;2023-07-30T15:13:01;21.20;99.90
18882;DHT22;9573;50.948;11.600;2023-07-30T15:15:29;21.40;99.90
18882;DHT22;9573;50.948;11.600;2023-07-30T15:17:56;21.60;99.90
18882;DHT22;9573;50.948;11.600;2023-07-30T15:20:24;21.70;99.90
18882;DHT22;9573;50.948;11.600;2023-07-30T15:22:52;21.90;99.90
18882;DHT22;9573;50.948;11.600;2023-07-30T15:25:19;22.10;99.90
18882;DHT22;9573;50.948;11.600;2023-07-30T15:27:46;22.30;99.90
18882;DHT22;9573;50.948;11.600;2023-07-30T15:30:13;22.50;99.90
18882;DHT22;9573;50.948;11.600;2023-07-30T15:32:44;22.50;99.90
18882;DHT22;9573;50.948;11.600;2023-07-30T15:35:11;22.50;99.90